Time;durP1;ratioP1;P1;durP2;ratioP2;P2;SDS_P1;SDS_P2;PMS_P1;PMS_P2;Temp;Humidity;BMP_temperature;BMP_pressure;BME280_temperature;BME280_humidity;BME280_pressure;Samples;Min_cycle;Max_cycle;Signal;HPM_P1;HPM_P2
2021/12/29 00:00:25;;;;;;;2.03;1.02;;;10.40;99.90;;;;;;5072145;28;20104;-49
2021/12/29 00:02:52;;;;;;;3.85;0.90;;;10.50;99.90;;;;;;5072320;28;20027;-47
2021/12/29 00:05:18;;;;;;;1.83;0.85;;;10.50;99.90;;;;;;5072484;28;20077;-49
2021/12/29 00:07:44;;;;;;;7.40;1.65;;;10.40;99.90;;;;;;5072636;28;20033;-49
2021/12/29 00:10:11;;;;;;;0.95;0.77;;;10.50;99.90;;;;;;5072263;28;20028;-47
2021/12/29 00:12:41;;;;;;;3.00;1.40;;;10.50;99.90;;;;;;5072429;28;20020;-48
2021/12/29 00:15:09;;;;;;;3.20;0.65;;;10.50;99.90;;;;;;5072342;28;20480;-49
2021/12/29 00:17:35;;;;;;;3.15;0.75;;;10.40;99.90;;;;;;5071399;28;20054;-48
2021/12/29 00:20:01;;;;;;;1.55;0.65;;;10.40;99.90;;;;;;5071250;28;20017;-50
2021/12/29 00:22:26;;;;;;;1.67;0.95;;;10.50;99.90;;;;;;5072007;28;20107;-47
2021/12/29 00:24:52;;;;;;;4.30;1.42;;;10.50;99.90;;;;;;5072197;28;20103;-50
2021/12/29 00:27:17;;;;;;;2.08;1.38;;;10.50;99.90;;;;;;5071708;28;20035;-49
2021/12/29 00:29:43;;;;;;;2.75;0.85;;;10.50;99.90;;;;;;5071578;28;20029;-48
2021/12/29 00:32:08;;;;;;;1.52;0.75;;;10.50;99.90;;;;;;5071536;28;20039;-49
2021/12/29 00:34:34;;;;;;;3.17;1.45;;;10.50;99.90;;;;;;5071885;28;20028;-48
2021/12/29 00:37:00;;;;;;;3.22;0.73;;;10.40;99.90;;;;;;5070265;28;20028;-48
2021/12/29 00:39:25;;;;;;;2.63;0.70;;;10.40;99.90;;;;;;5070803;28;20032;-47
2021/12/29 00:41:51;;;;;;;0.90;0.60;;;10.40;99.90;;;;;;5069781;28;20070;-46
2021/12/29 00:44:16;;;;;;;0.73;0.68;;;10.40;99.90;;;;;;5070392;28;20028;-48
2021/12/29 00:46:42;;;;;;;4.78;1.02;;;10.40;99.90;;;;;;5070616;28;20025;-48
2021/12/29 00:49:08;;;;;;;4.05;0.93;;;10.40;99.90;;;;;;5071011;28;20074;-47
2021/12/29 00:51:34;;;;;;;2.17;0.73;;;10.40;99.90;;;;;;5071732;28;20404;-51
2021/12/29 00:54:00;;;;;;;3.80;1.10;;;10.40;99.90;;;;;;5071579;28;20037;-48
2021/12/29 00:56:26;;;;;;;0.90;0.70;;;10.40;99.90;;;;;;5071600;28;20036;-49
2021/12/29 00:58:52;;;;;;;2.13;0.68;;;10.30;99.90;;;;;;5071379;28;20419;-47
2021/12/29 01:01:17;;;;;;;2.83;0.80;;;10.30;99.90;;;;;;5071372;28;20076;-48
2021/12/29 01:03:43;;;;;;;1.85;0.90;;;10.30;99.90;;;;;;5071308;28;20384;-48
2021/12/29 01:06:09;;;;;;;4.07;0.60;;;10.30;99.90;;;;;;5071405;28;20441;-49
2021/12/29 01:08:35;;;;;;;1.08;0.52;;;10.30;99.90;;;;;;5053389;28;20060;-47
2021/12/29 01:11:01;;;;;;;1.75;0.60;;;10.40;99.90;;;;;;5071048;28;20081;-48
2021/12/29 01:13:32;;;;;;;1.65;0.75;;;10.30;99.90;;;;;;5071305;28;20024;-49
2021/12/29 01:18:31;;;;;;;3.35;1.00;;;10.30;99.90;;;;;;5071510;28;20056;-50
2021/12/29 01:20:57;;;;;;;3.35;1.08;;;10.30;99.90;;;;;;5070899;28;20020;-50
2021/12/29 01:23:24;;;;;;;2.38;0.75;;;10.30;99.90;;;;;;5071173;28;20048;-48
2021/12/29 01:25:49;;;;;;;4.00;1.25;;;10.30;99.90;;;;;;5071316;28;20092;-50
2021/12/29 01:28:15;;;;;;;3.72;1.23;;;10.30;99.90;;;;;;5071306;28;20460;-50
2021/12/29 01:30:41;;;;;;;2.45;0.63;;;10.20;99.90;;;;;;5073858;28;20063;-46
2021/12/29 01:33:07;;;;;;;2.00;0.90;;;10.20;99.90;;;;;;5075086;28;20029;-48
2021/12/29 01:35:33;;;;;;;2.63;0.80;;;10.10;99.90;;;;;;5057542;28;20063;-50
2021/12/29 01:38:00;;;;;;;2.65;0.90;;;10.10;99.90;;;;;;5075326;28;20036;-47
2021/12/29 01:42:56;;;;;;;2.80;1.35;;;10.00;99.90;;;;;;5085842;22;20053;-41
2021/12/29 01:45:22;;;;;;;2.33;0.90;;;9.90;99.90;;;;;;5055164;28;20028;-45
2021/12/29 01:47:48;;;;;;;2.63;0.82;;;9.90;99.90;;;;;;5055077;28;20111;-46
2021/12/29 01:50:15;;;;;;;3.33;1.10;;;9.90;99.90;;;;;;5054152;28;20036;-44
2021/12/29 01:52:42;;;;;;;6.30;1.40;;;9.90;99.90;;;;;;5036502;28;20030;-45
2021/12/29 01:55:13;;;;;;;6.65;1.60;;;9.90;99.90;;;;;;5034527;28;20035;-40
2021/12/29 01:57:40;;;;;;;2.70;1.40;;;9.90;99.90;;;;;;5034942;28;20132;-44
2021/12/29 02:00:10;;;;;;;3.47;0.80;;;9.90;99.90;;;;;;5016898;28;20053;-44
2021/12/29 02:02:36;;;;;;;2.65;0.80;;;9.90;99.90;;;;;;5034792;28;20032;-47
2021/12/29 02:05:01;;;;;;;2.25;1.27;;;9.90;99.90;;;;;;5034884;28;20025;-42
2021/12/29 02:07:28;;;;;;;1.60;0.90;;;9.90;99.90;;;;;;5034839;28;20397;-48
2021/12/29 02:09:54;;;;;;;5.50;0.88;;;9.90;99.90;;;;;;5034352;28;20053;-44
2021/12/29 02:12:20;;;;;;;0.82;0.70;;;9.90;99.90;;;;;;5035273;28;20053;-45
2021/12/29 02:14:46;;;;;;;2.10;0.80;;;9.90;99.90;;;;;;5034982;28;20044;-45
2021/12/29 02:17:13;;;;;;;2.03;0.73;;;9.90;99.90;;;;;;5034464;28;20022;-42
2021/12/29 02:19:45;;;;;;;1.27;0.90;;;9.90;99.90;;;;;;5034423;28;20434;-44
2021/12/29 02:22:23;;;;;;;1.08;0.60;;;9.90;99.90;;;;;;5034389;28;20036;-44
2021/12/29 02:24:54;;;;;;;1.98;0.80;;;9.90;99.90;;;;;;5034448;28;20026;-44
2021/12/29 02:27:20;;;;;;;3.40;1.08;;;9.90;99.90;;;;;;5034461;28;20393;-44
2021/12/29 02:29:47;;;;;;;1.80;0.65;;;9.90;99.90;;;;;;5016894;28;20028;-44
2021/12/29 02:32:13;;;;;;;1.77;0.98;;;9.90;99.90;;;;;;5037959;28;20025;-46
2021/12/29 02:34:40;;;;;;;2.47;0.98;;;9.90;99.90;;;;;;5041158;28;20085;-44
2021/12/29 02:37:07;;;;;;;2.50;0.95;;;9.80;99.90;;;;;;5035024;28;20037;-44
2021/12/29 02:39:36;;;;;;;0.98;0.60;;;9.80;99.90;;;;;;5034791;28;20036;-40
2021/12/29 02:42:05;;;;;;;3.85;0.82;;;9.80;99.90;;;;;;5033421;28;20056;-45
2021/12/29 02:44:38;;;;;;;2.78;0.60;;;9.80;99.90;;;;;;5034611;28;20649;-44
2021/12/29 02:47:04;;;;;;;1.42;0.70;;;9.80;99.90;;;;;;5034214;28;20515;-45
2021/12/29 02:49:29;;;;;;;2.70;0.70;;;9.80;99.90;;;;;;5033711;28;20025;-41
2021/12/29 02:51:55;;;;;;;1.85;0.73;;;9.80;99.90;;;;;;5033757;28;20065;-40
2021/12/29 02:54:21;;;;;;;3.45;0.90;;;9.80;99.90;;;;;;5033631;28;20108;-44
2021/12/29 02:56:48;;;;;;;3.17;0.88;;;9.80;99.90;;;;;;5034505;28;20506;-43
2021/12/29 02:59:15;;;;;;;4.45;0.80;;;9.80;99.90;;;;;;5038991;28;20045;-49
2021/12/29 03:01:40;;;;;;;2.58;0.73;;;9.80;99.90;;;;;;5034275;28;20025;-44
2021/12/29 03:04:06;;;;;;;2.50;0.98;;;9.80;99.90;;;;;;5033705;28;20018;-42
2021/12/29 03:06:33;;;;;;;2.92;0.60;;;9.80;99.90;;;;;;5033741;28;20106;-46
2021/12/29 03:08:59;;;;;;;5.15;1.13;;;9.80;99.90;;;;;;5034066;28;20029;-43
2021/12/29 03:11:24;;;;;;;1.70;0.63;;;9.90;99.90;;;;;;5015497;28;20091;-49
2021/12/29 03:13:50;;;;;;;3.05;0.93;;;9.90;99.90;;;;;;5033564;28;20041;-45
2021/12/29 03:16:16;;;;;;;1.67;0.70;;;9.90;99.90;;;;;;5015337;28;20030;-39
2021/12/29 03:18:42;;;;;;;1.63;0.80;;;10.00;99.90;;;;;;5033454;28;20026;-44
2021/12/29 03:21:09;;;;;;;1.00;0.80;;;10.00;99.90;;;;;;5033006;28;20500;-43
2021/12/29 03:23:35;;;;;;;4.95;0.70;;;10.00;99.90;;;;;;5033165;28;20496;-45
2021/12/29 03:26:02;;;;;;;2.60;0.75;;;9.90;99.90;;;;;;5033199;28;20033;-40
2021/12/29 03:28:27;;;;;;;2.55;0.80;;;9.90;99.90;;;;;;5015340;28;20030;-47
2021/12/29 03:30:54;;;;;;;5.15;1.65;;;9.90;99.90;;;;;;5015003;28;20032;-44
2021/12/29 03:33:21;;;;;;;2.83;1.20;;;9.80;99.90;;;;;;5033124;28;20025;-43
2021/12/29 03:36:07;;;;;;;2.97;1.17;;;9.70;99.90;;;;;;5033061;28;20021;-43
2021/12/29 03:38:36;;;;;;;4.82;1.02;;;9.70;99.90;;;;;;5032686;28;20100;-43
2021/12/29 03:41:04;;;;;;;3.35;1.27;;;9.70;99.90;;;;;;5032555;28;20559;-45
2021/12/29 03:43:32;;;;;;;2.10;0.60;;;9.70;99.90;;;;;;5032943;28;20099;-40
2021/12/29 03:45:58;;;;;;;3.05;0.80;;;9.70;99.90;;;;;;5032928;28;20536;-40
2021/12/29 03:48:26;;;;;;;4.43;1.48;;;9.70;99.90;;;;;;5032941;28;20032;-45
2021/12/29 03:50:53;;;;;;;5.68;1.00;;;9.70;99.90;;;;;;5032657;28;20025;-45
2021/12/29 03:53:19;;;;;;;2.00;1.02;;;9.70;99.90;;;;;;5032381;28;20057;-39
2021/12/29 03:55:48;;;;;;;2.55;0.60;;;9.70;99.90;;;;;;5032776;28;20056;-44
2021/12/29 03:58:14;;;;;;;1.27;0.70;;;9.70;99.90;;;;;;5032589;28;20408;-46
2021/12/29 04:00:40;;;;;;;0.70;0.70;;;9.70;99.90;;;;;;5032280;28;20029;-43
2021/12/29 04:03:05;;;;;;;0.80;0.80;;;9.60;99.90;;;;;;5032543;28;20026;-45
2021/12/29 04:05:31;;;;;;;2.35;0.82;;;9.60;99.90;;;;;;5032628;28;20146;-48
2021/12/29 04:07:58;;;;;;;2.75;1.60;;;9.60;99.90;;;;;;5032486;28;20094;-45
2021/12/29 04:10:24;;;;;;;1.92;0.70;;;9.60;99.90;;;;;;5032254;28;20068;-45
2021/12/29 04:12:50;;;;;;;0.63;0.60;;;9.70;99.90;;;;;;5032390;28;20517;-42
2021/12/29 04:15:17;;;;;;;4.43;1.45;;;9.70;99.90;;;;;;5032388;28;20025;-44
2021/12/29 04:17:44;;;;;;;1.23;0.80;;;9.70;99.90;;;;;;5032491;28;20505;-45
2021/12/29 04:22:57;;;;;;;3.13;1.35;;;9.80;99.90;;;;;;5032382;28;20108;-45
2021/12/29 04:25:24;;;;;;;3.67;0.80;;;9.80;99.90;;;;;;5032232;28;20036;-45
2021/12/29 04:27:55;;;;;;;1.67;0.70;;;9.80;99.90;;;;;;5032227;28;20033;-48
2021/12/29 04:30:21;;;;;;;3.92;1.13;;;9.80;99.90;;;;;;5014046;28;20105;-42
2021/12/29 04:32:47;;;;;;;1.38;0.80;;;9.90;99.90;;;;;;5031908;28;20504;-44
2021/12/29 04:35:13;;;;;;;2.75;0.70;;;9.90;99.90;;;;;;5032167;28;20038;-46
2021/12/29 04:37:38;;;;;;;1.42;0.70;;;9.90;99.90;;;;;;5032797;28;20021;-40
2021/12/29 04:40:06;;;;;;;1.48;0.73;;;9.90;99.90;;;;;;5032524;28;20029;-44
2021/12/29 04:42:31;;;;;;;2.17;0.77;;;10.00;99.90;;;;;;5031890;28;20034;-48
2021/12/29 04:44:57;;;;;;;1.38;0.93;;;10.10;99.90;;;;;;5031968;28;20026;-49
2021/12/29 04:47:28;;;;;;;2.03;0.68;;;10.10;99.90;;;;;;5032006;28;20056;-43
2021/12/29 04:49:54;;;;;;;0.57;0.52;;;10.10;99.90;;;;;;5031657;28;20033;-44
2021/12/29 04:52:20;;;;;;;1.33;0.80;;;10.10;99.90;;;;;;5014233;28;20025;-40
2021/12/29 04:54:45;;;;;;;4.43;1.15;;;10.10;99.90;;;;;;5031273;28;20052;-48
2021/12/29 04:57:11;;;;;;;1.35;1.00;;;10.20;99.90;;;;;;5031535;28;20029;-44
2021/12/29 04:59:37;;;;;;;2.15;1.27;;;10.20;99.90;;;;;;5031514;28;20389;-44
2021/12/29 05:02:03;;;;;;;0.68;0.68;;;10.20;99.90;;;;;;5031658;28;20021;-44
2021/12/29 05:04:32;;;;;;;0.98;0.93;;;10.20;99.90;;;;;;5031136;28;20026;-40
2021/12/29 05:09:42;;;;;;;1.77;1.23;;;10.20;99.90;;;;;;5031593;28;20507;-46
2021/12/29 05:12:08;;;;;;;2.35;0.98;;;10.20;99.90;;;;;;5031586;28;20029;-40
2021/12/29 05:14:34;;;;;;;2.28;0.90;;;10.20;99.90;;;;;;5031468;28;20082;-40
2021/12/29 05:17:00;;;;;;;0.90;0.90;;;10.20;99.90;;;;;;5031596;28;20404;-44
2021/12/29 05:19:25;;;;;;;0.63;0.63;;;10.30;99.90;;;;;;5031126;28;20022;-44
2021/12/29 05:21:51;;;;;;;0.60;0.60;;;10.20;99.90;;;;;;5013609;28;20533;-47
2021/12/29 05:24:16;;;;;;;2.05;0.70;;;10.20;99.90;;;;;;5031470;28;20100;-47
2021/12/29 05:26:42;;;;;;;4.10;1.13;;;10.10;99.90;;;;;;5031353;28;20393;-47
2021/12/29 05:29:08;;;;;;;0.93;0.60;;;10.10;99.90;;;;;;5030964;28;20068;-42
2021/12/29 05:31:33;;;;;;;1.63;0.70;;;10.10;99.90;;;;;;5031307;28;20042;-47
2021/12/29 05:33:59;;;;;;;0.60;0.60;;;10.10;99.90;;;;;;5031298;28;20520;-47
2021/12/29 05:36:25;;;;;;;2.40;1.08;;;10.10;99.90;;;;;;5031349;28;20021;-45
2021/12/29 05:38:53;;;;;;;1.92;0.80;;;10.10;99.90;;;;;;5031200;28;20059;-44
2021/12/29 05:41:19;;;;;;;1.52;0.60;;;10.00;99.90;;;;;;5030801;28;20068;-39
2021/12/29 05:43:44;;;;;;;0.85;0.50;;;10.00;99.90;;;;;;5031194;28;20116;-44
2021/12/29 05:46:10;;;;;;;1.85;1.05;;;9.90;99.90;;;;;;5013572;28;20467;-47
2021/12/29 05:48:36;;;;;;;1.77;0.70;;;9.90;99.90;;;;;;5031282;28;20385;-39
2021/12/29 05:51:01;;;;;;;1.80;0.70;;;9.90;99.90;;;;;;5030842;28;20017;-44
2021/12/29 05:53:27;;;;;;;4.13;0.73;;;9.90;99.90;;;;;;5030504;28;20033;-43
2021/12/29 05:55:53;;;;;;;1.23;0.65;;;9.80;99.90;;;;;;5031164;28;20026;-48
2021/12/29 05:58:18;;;;;;;0.75;0.73;;;9.80;99.90;;;;;;5031027;28;20076;-45
2021/12/29 06:00:44;;;;;;;0.60;0.60;;;9.80;99.90;;;;;;5030855;28;20092;-45
2021/12/29 06:03:10;;;;;;;1.25;0.63;;;9.70;99.90;;;;;;5013552;28;20029;-44
2021/12/29 06:05:37;;;;;;;5.63;1.10;;;9.70;99.90;;;;;;5013351;28;20022;-46
2021/12/29 06:08:03;;;;;;;1.77;0.75;;;9.70;99.90;;;;;;5013461;28;20033;-46
2021/12/29 06:10:29;;;;;;;2.30;1.00;;;9.60;99.90;;;;;;5013037;28;20026;-40
2021/12/29 06:12:55;;;;;;;1.17;0.82;;;9.60;99.90;;;;;;5030947;28;20120;-40
2021/12/29 06:15:21;;;;;;;5.47;1.05;;;9.60;99.90;;;;;;5031169;28;20112;-45
2021/12/29 06:17:46;;;;;;;1.40;1.33;;;9.60;99.90;;;;;;5033770;28;20404;-46
2021/12/29 06:20:13;;;;;;;1.60;1.17;;;9.50;99.90;;;;;;5016442;28;20099;-45
2021/12/29 06:22:40;;;;;;;2.80;1.08;;;9.60;99.90;;;;;;5034532;28;20108;-39
2021/12/29 06:25:09;;;;;;;6.00;1.75;;;9.50;99.90;;;;;;5034600;28;20536;-48
2021/12/29 06:27:34;;;;;;;3.85;1.00;;;9.50;99.90;;;;;;5034416;28;20100;-47
2021/12/29 06:30:00;;;;;;;3.53;1.38;;;9.50;99.90;;;;;;5034233;28;20037;-40
2021/12/29 06:32:26;;;;;;;1.58;1.48;;;9.50;99.90;;;;;;5034476;28;20022;-44
2021/12/29 06:34:51;;;;;;;3.03;1.27;;;9.50;99.90;;;;;;5034764;28;20049;-44
2021/12/29 06:37:17;;;;;;;2.53;0.95;;;9.50;99.90;;;;;;5034329;28;20029;-47
2021/12/29 06:39:45;;;;;;;4.18;1.20;;;9.50;99.90;;;;;;5034052;28;20484;-48
2021/12/29 06:42:11;;;;;;;2.95;1.30;;;9.40;99.90;;;;;;5034109;28;20029;-45
2021/12/29 06:44:38;;;;;;;4.47;1.30;;;9.30;99.90;;;;;;5034304;28;20041;-44
2021/12/29 06:47:04;;;;;;;2.20;1.23;;;9.30;99.90;;;;;;5034305;28;20120;-42
2021/12/29 06:49:30;;;;;;;2.97;1.38;;;9.20;99.90;;;;;;5033731;28;20104;-46
2021/12/29 06:51:55;;;;;;;3.38;1.67;;;9.20;99.90;;;;;;5033932;28;20056;-49
2021/12/29 06:54:21;;;;;;;3.38;1.50;;;9.20;99.90;;;;;;5033678;28;20075;-44
2021/12/29 06:56:46;;;;;;;3.55;2.28;;;9.20;99.90;;;;;;5033999;28;20049;-44
2021/12/29 06:59:12;;;;;;;5.05;2.00;;;9.20;99.90;;;;;;5033662;28;20049;-40
2021/12/29 07:01:37;;;;;;;1.92;1.35;;;9.30;99.90;;;;;;5033697;28;20078;-46
2021/12/29 07:04:03;;;;;;;2.90;1.45;;;9.40;99.90;;;;;;5033746;28;20090;-44
2021/12/29 07:06:29;;;;;;;1.83;1.70;;;9.40;99.90;;;;;;5033579;28;20432;-49
2021/12/29 07:08:54;;;;;;;1.45;1.13;;;9.30;99.90;;;;;;5033443;28;20172;-44
2021/12/29 07:11:20;;;;;;;3.90;1.67;;;9.30;99.90;;;;;;5032982;28;20112;-45
2021/12/29 07:13:46;;;;;;;7.90;1.70;;;9.30;99.90;;;;;;5033350;28;20044;-48
2021/12/29 07:16:12;;;;;;;2.75;1.75;;;9.40;99.90;;;;;;5033380;28;20029;-49
2021/12/29 07:18:38;;;;;;;1.70;1.33;;;9.40;99.90;;;;;;5033404;28;20489;-44
2021/12/29 07:21:04;;;;;;;5.72;1.80;;;9.40;99.90;;;;;;5033046;28;20083;-42
2021/12/29 07:23:30;;;;;;;3.78;1.27;;;9.40;99.90;;;;;;5033267;28;20034;-49
2021/12/29 07:25:55;;;;;;;3.30;1.10;;;9.40;99.90;;;;;;5015590;28;20030;-48
2021/12/29 07:28:21;;;;;;;1.88;1.40;;;9.40;99.90;;;;;;5032883;28;20509;-45
2021/12/29 07:30:46;;;;;;;3.70;1.48;;;9.30;99.90;;;;;;5032786;28;20068;-40
2021/12/29 07:33:12;;;;;;;3.25;1.60;;;9.30;99.90;;;;;;5033079;28;20029;-40
2021/12/29 07:35:38;;;;;;;6.13;1.70;;;9.40;99.90;;;;;;5033163;28;20029;-48
2021/12/29 07:38:03;;;;;;;2.22;1.40;;;9.40;99.90;;;;;;5032959;28;20038;-43
2021/12/29 07:40:30;;;;;;;4.78;1.77;;;9.40;99.90;;;;;;5032888;28;20482;-46
2021/12/29 07:42:55;;;;;;;3.78;1.60;;;9.40;99.90;;;;;;5054195;23;20049;-47
2021/12/29 07:45:23;;;;;;;4.38;1.60;;;9.40;99.90;;;;;;5067992;28;20401;-47
2021/12/29 07:47:49;;;;;;;5.82;2.08;;;9.40;99.90;;;;;;5051332;28;20514;-50
2021/12/29 07:50:17;;;;;;;5.13;2.08;;;9.40;99.90;;;;;;5052351;28;20396;-52
2021/12/29 07:52:48;;;;;;;5.20;2.03;;;9.40;99.90;;;;;;5052261;28;20033;-51
2021/12/29 07:55:19;;;;;;;3.78;2.10;;;9.30;99.90;;;;;;5051925;28;20035;-48
2021/12/29 07:57:46;;;;;;;3.10;1.92;;;9.30;99.90;;;;;;5052448;28;20095;-54
2021/12/29 08:00:13;;;;;;;2.72;2.20;;;9.30;99.90;;;;;;5051025;28;20033;-51
2021/12/29 08:02:39;;;;;;;8.80;1.98;;;9.30;99.90;;;;;;5052424;28;20025;-52
2021/12/29 08:05:07;;;;;;;4.05;1.55;;;9.30;99.90;;;;;;5051150;28;20120;-48
2021/12/29 08:07:32;;;;;;;3.85;2.25;;;9.30;99.90;;;;;;5052406;28;20444;-50
2021/12/29 08:09:58;;;;;;;5.22;1.55;;;9.40;99.90;;;;;;5051825;28;20049;-48
2021/12/29 08:12:23;;;;;;;2.45;1.40;;;9.40;99.90;;;;;;5052015;28;20033;-49
2021/12/29 08:14:51;;;;;;;5.07;1.75;;;9.40;99.90;;;;;;5052418;28;20036;-50
2021/12/29 08:17:16;;;;;;;2.30;1.27;;;9.40;99.90;;;;;;5050820;28;20108;-53
2021/12/29 08:19:43;;;;;;;4.47;1.17;;;9.40;99.90;;;;;;5051889;28;20099;-50
2021/12/29 08:22:09;;;;;;;3.00;1.40;;;9.40;99.90;;;;;;5051983;28;20047;-50
2021/12/29 08:24:34;;;;;;;4.50;1.42;;;9.40;99.90;;;;;;5052022;28;20484;-51
2021/12/29 08:27:00;;;;;;;3.38;1.70;;;9.40;99.90;;;;;;5050201;28;20029;-49
2021/12/29 08:29:25;;;;;;;3.28;1.17;;;9.40;99.90;;;;;;5043565;28;20021;-48
2021/12/29 08:31:51;;;;;;;4.00;1.95;;;9.50;99.90;;;;;;5051913;28;20032;-52
2021/12/29 08:34:17;;;;;;;1.75;1.60;;;9.50;99.90;;;;;;5051791;28;20029;-49
2021/12/29 08:36:43;;;;;;;3.72;1.70;;;9.50;99.90;;;;;;5030902;28;20079;-49
2021/12/29 08:39:08;;;;;;;4.05;1.30;;;9.50;99.90;;;;;;5030720;28;20033;-48
2021/12/29 08:41:34;;;;;;;3.38;1.20;;;9.60;99.90;;;;;;5046357;28;20031;-51
2021/12/29 08:44:00;;;;;;;2.97;1.20;;;9.60;99.90;;;;;;5033814;28;20030;-53
2021/12/29 08:46:28;;;;;;;5.10;1.83;;;9.70;99.90;;;;;;5036937;28;20540;-49
2021/12/29 08:48:54;;;;;;;2.92;1.58;;;9.70;99.90;;;;;;5051555;28;20115;-51
2021/12/29 08:51:20;;;;;;;5.15;1.75;;;9.70;99.90;;;;;;5049431;28;20116;-48
2021/12/29 08:53:46;;;;;;;3.78;1.27;;;9.70;99.90;;;;;;5051402;28;20055;-52
2021/12/29 08:56:14;;;;;;;2.60;1.48;;;9.60;99.90;;;;;;5050287;28;20112;-55
2021/12/29 08:58:41;;;;;;;1.35;1.25;;;9.70;99.90;;;;;;5045290;28;20055;-45
2021/12/29 09:01:06;;;;;;;7.32;1.75;;;9.70;99.90;;;;;;5031316;28;20033;-47
2021/12/29 09:03:32;;;;;;;4.72;1.23;;;9.70;99.90;;;;;;5034135;28;20412;-44
2021/12/29 09:05:57;;;;;;;7.38;1.75;;;9.80;99.90;;;;;;5051922;28;20025;-47
2021/12/29 09:08:23;;;;;;;3.58;1.98;;;9.90;99.90;;;;;;5050442;28;20021;-48
2021/12/29 09:10:49;;;;;;;5.60;2.17;;;10.00;99.90;;;;;;5031118;28;20029;-49
2021/12/29 09:13:15;;;;;;;3.72;1.27;;;10.00;99.90;;;;;;5042534;28;20110;-48
2021/12/29 09:15:40;;;;;;;2.08;1.30;;;10.00;99.90;;;;;;5051008;28;20486;-46
2021/12/29 09:18:06;;;;;;;1.60;1.30;;;10.00;99.90;;;;;;5050984;28;20112;-49
2021/12/29 09:20:33;;;;;;;6.88;2.15;;;10.00;99.90;;;;;;5051088;28;20397;-46
2021/12/29 09:23:06;;;;;;;6.28;3.63;;;10.00;99.90;;;;;;5051094;28;20425;-48
2021/12/29 09:25:32;;;;;;;1.95;1.30;;;10.00;99.90;;;;;;5050230;28;20017;-46
2021/12/29 09:27:58;;;;;;;4.63;1.90;;;10.00;99.90;;;;;;5051221;28;20086;-50
2021/12/29 09:30:26;;;;;;;3.42;1.35;;;10.10;99.90;;;;;;5051317;28;20037;-48
2021/12/29 09:32:52;;;;;;;3.88;1.45;;;10.10;99.90;;;;;;5049743;28;20171;-49
2021/12/29 09:35:20;;;;;;;2.85;1.73;;;10.10;99.90;;;;;;5049941;28;20025;-46
2021/12/29 09:37:46;;;;;;;3.53;1.40;;;10.20;99.90;;;;;;5051093;28;20044;-49
2021/12/29 09:40:13;;;;;;;4.43;1.40;;;10.20;99.90;;;;;;5050935;28;20025;-47
2021/12/29 09:42:40;;;;;;;2.70;1.45;;;10.30;99.90;;;;;;5051047;28;20032;-48
2021/12/29 09:45:07;;;;;;;3.85;1.52;;;10.30;99.90;;;;;;5051072;28;20036;-47
2021/12/29 09:47:34;;;;;;;1.63;1.15;;;10.30;99.90;;;;;;5051241;28;20389;-45
2021/12/29 09:50:02;;;;;;;3.63;1.15;;;10.30;99.90;;;;;;5051032;28;20036;-49
2021/12/29 09:52:33;;;;;;;2.53;1.13;;;10.40;99.90;;;;;;5053940;28;20029;-46
2021/12/29 09:55:04;;;;;;;2.90;1.10;;;10.40;99.90;;;;;;5055140;28;20032;-49
2021/12/29 09:57:29;;;;;;;4.75;1.45;;;10.40;99.90;;;;;;5055245;28;20021;-48
2021/12/29 09:59:55;;;;;;;2.90;1.30;;;10.40;99.90;;;;;;5054700;28;20074;-46
2021/12/29 10:02:21;;;;;;;3.50;1.00;;;10.40;99.90;;;;;;5053615;28;20021;-47
2021/12/29 10:04:46;;;;;;;3.58;1.33;;;10.40;99.90;;;;;;5054974;28;20042;-46
2021/12/29 10:07:19;;;;;;;3.72;1.40;;;10.40;99.90;;;;;;5054779;28;20025;-46
2021/12/29 10:09:45;;;;;;;3.83;1.40;;;10.50;99.90;;;;;;5054570;28;20021;-47
2021/12/29 10:12:19;;;;;;;7.05;1.65;;;10.60;99.90;;;;;;5054517;28;20031;-49
2021/12/29 10:14:51;;;;;;;5.85;1.20;;;10.70;99.90;;;;;;5054660;28;20074;-49
2021/12/29 10:17:17;;;;;;;4.57;1.33;;;10.80;99.90;;;;;;5054125;28;20032;-48
2021/12/29 10:19:43;;;;;;;2.67;1.42;;;10.90;99.90;;;;;;5052867;28;20025;-47
2021/12/29 10:22:22;;;;;;;3.47;1.60;;;10.90;99.90;;;;;;5054283;28;20021;-48
2021/12/29 10:25:00;;;;;;;2.72;1.48;;;11.00;99.90;;;;;;5054446;28;20060;-49
2021/12/29 10:27:29;;;;;;;2.08;1.10;;;11.00;99.90;;;;;;5052525;28;20028;-49
2021/12/29 10:29:55;;;;;;;3.15;1.27;;;11.10;99.90;;;;;;5052770;28;20056;-48
2021/12/29 10:32:25;;;;;;;3.03;1.40;;;11.20;99.90;;;;;;5054126;28;20051;-48
2021/12/29 10:34:53;;;;;;;8.23;1.73;;;11.30;99.90;;;;;;5052689;28;20029;-50
2021/12/29 10:37:23;;;;;;;8.00;1.38;;;11.40;99.90;;;;;;5053979;28;20028;-47
2021/12/29 10:39:51;;;;;;;4.28;1.13;;;11.40;99.90;;;;;;5053651;28;20025;-47
2021/12/29 10:42:20;;;;;;;5.40;1.98;;;11.30;99.90;;;;;;5052215;28;20123;-44
2021/12/29 10:44:57;;;;;;;4.97;1.23;;;11.20;99.90;;;;;;5053950;28;20017;-46
2021/12/29 10:47:31;;;;;;;7.22;2.30;;;11.20;99.90;;;;;;5053888;28;20426;-48
2021/12/29 10:50:10;;;;;;;2.55;1.40;;;11.20;99.90;;;;;;5053750;28;20025;-45
2021/12/29 10:52:41;;;;;;;3.95;1.20;;;11.20;99.90;;;;;;5053804;28;20028;-48
2021/12/29 10:55:31;;;;;;;2.75;1.52;;;11.20;99.90;;;;;;5054055;28;20036;-48
2021/12/29 10:58:10;;;;;;;3.80;1.48;;;11.20;99.90;;;;;;5053683;28;20032;-49
2021/12/29 11:00:38;;;;;;;11.18;1.98;;;11.10;99.90;;;;;;5053831;28;20025;-48
2021/12/29 11:03:19;;;;;;;5.00;1.73;;;11.10;99.90;;;;;;5052078;28;20104;-49
2021/12/29 11:05:47;;;;;;;4.20;1.40;;;11.20;99.90;;;;;;5052573;28;20075;-47
2021/12/29 11:08:14;;;;;;;13.38;1.58;;;11.20;99.90;;;;;;5050299;28;20049;-46
2021/12/29 11:10:40;;;;;;;6.47;2.22;;;11.20;99.90;;;;;;5042467;28;20080;-52
2021/12/29 11:13:07;;;;;;;7.20;2.05;;;11.20;99.90;;;;;;5045736;28;20025;-47
2021/12/29 11:15:41;;;;;;;6.00;1.65;;;11.20;99.90;;;;;;5053550;28;20025;-51
2021/12/29 11:18:09;;;;;;;3.17;1.23;;;11.20;99.90;;;;;;5053609;28;20048;-49
2021/12/29 11:20:35;;;;;;;6.05;1.83;;;11.20;99.90;;;;;;5051051;28;20017;-47
2021/12/29 11:23:16;;;;;;;3.35;1.60;;;11.20;99.90;;;;;;5053037;28;20017;-47
2021/12/29 11:25:44;;;;;;;4.28;2.00;;;11.10;99.90;;;;;;5053373;28;20025;-50
2021/12/29 11:28:39;;;;;;;4.03;1.90;;;11.10;99.90;;;;;;5051809;28;20167;-47
2021/12/29 11:31:08;;;;;;;2.77;1.33;;;11.10;99.90;;;;;;5043245;28;20044;-48
2021/12/29 11:33:35;;;;;;;3.58;1.50;;;11.10;99.90;;;;;;5051524;28;20124;-47
2021/12/29 11:36:02;;;;;;;8.10;2.10;;;11.10;99.90;;;;;;5051217;28;20033;-47
2021/12/29 11:38:28;;;;;;;4.93;1.70;;;11.10;99.90;;;;;;5052427;28;20029;-47
2021/12/29 11:40:56;;;;;;;3.90;1.40;;;11.00;99.90;;;;;;5051999;28;20083;-53
2021/12/29 11:43:22;;;;;;;1.50;1.00;;;11.00;99.90;;;;;;5042169;28;20381;-47
2021/12/29 11:45:50;;;;;;;1.52;1.10;;;11.00;99.90;;;;;;5052648;28;20021;-46
2021/12/29 11:48:21;;;;;;;2.78;1.38;;;10.90;99.90;;;;;;5052370;28;20029;-49
2021/12/29 11:50:53;;;;;;;3.03;1.08;;;11.00;99.90;;;;;;5051956;28;20028;-50
2021/12/29 11:53:55;;;;;;;3.75;1.20;;;11.00;99.90;;;;;;5052550;28;20028;-52
2021/12/29 11:56:21;;;;;;;8.88;1.30;;;10.90;99.90;;;;;;5052534;28;20021;-47
2021/12/29 11:58:49;;;;;;;3.40;1.35;;;11.00;99.90;;;;;;5052059;28;20181;-47
2021/12/29 12:01:25;;;;;;;4.65;1.50;;;11.00;99.90;;;;;;5050304;28;20032;-46
2021/12/29 12:04:03;;;;;;;4.60;1.25;;;11.00;99.90;;;;;;5052594;28;20028;-47
2021/12/29 12:06:31;;;;;;;4.38;1.75;;;11.00;99.90;;;;;;5047761;28;20060;-47
2021/12/29 12:09:22;;;;;;;8.60;2.42;;;11.10;99.90;;;;;;5052057;28;20052;-48
2021/12/29 12:11:48;;;;;;;4.63;1.27;;;11.10;99.90;;;;;;5051969;28;20492;-52
2021/12/29 12:14:36;;;;;;;3.13;1.65;;;11.00;99.90;;;;;;5050806;28;20036;-49
2021/12/29 12:17:11;;;;;;;5.53;2.03;;;11.10;99.90;;;;;;5051965;28;20039;-46
2021/12/29 12:19:37;;;;;;;5.15;1.40;;;11.10;99.90;;;;;;5052145;28;20500;-49
2021/12/29 12:22:17;;;;;;;5.05;1.63;;;11.10;99.90;;;;;;5033641;28;20035;-48
2021/12/29 12:24:51;;;;;;;7.53;1.95;;;11.10;99.90;;;;;;5045880;28;20381;-48
2021/12/29 12:27:28;;;;;;;4.93;1.70;;;11.00;99.90;;;;;;5052208;28;20029;-50
2021/12/29 12:30:10;;;;;;;5.55;1.80;;;11.00;99.90;;;;;;5050772;28;20496;-48
2021/12/29 12:32:53;;;;;;;9.65;2.60;;;11.10;99.90;;;;;;5051918;28;20032;-47
2021/12/29 12:35:34;;;;;;;9.98;1.63;;;11.00;99.90;;;;;;5050770;28;20023;-49
2021/12/29 12:38:17;;;;;;;9.55;3.22;;;11.00;99.90;;;;;;5050981;28;20033;-46
2021/12/29 12:40:43;;;;;;;8.73;2.75;;;10.90;99.90;;;;;;5031704;28;20022;-48
2021/12/29 12:43:17;;;;;;;6.28;2.22;;;10.80;99.90;;;;;;5032052;28;20037;-48
2021/12/29 12:45:50;;;;;;;7.15;2.33;;;10.80;99.90;;;;;;5032258;28;20021;-50
2021/12/29 12:48:29;;;;;;;6.82;2.55;;;10.80;99.90;;;;;;5031974;28;20040;-49
2021/12/29 12:50:58;;;;;;;6.90;2.40;;;10.90;99.90;;;;;;5031969;28;20029;-48
2021/12/29 12:53:38;;;;;;;8.13;2.75;;;10.90;99.90;;;;;;5031884;28;20554;-47
2021/12/29 12:56:08;;;;;;;10.95;2.80;;;10.90;99.90;;;;;;5051536;28;20029;-48
2021/12/29 12:58:39;;;;;;;6.18;3.38;;;10.90;99.90;;;;;;5051276;28;20079;-47
2021/12/29 13:01:25;;;;;;;8.93;2.95;;;10.90;99.90;;;;;;5050889;28;20040;-51
2021/12/29 13:04:05;;;;;;;5.63;2.22;;;10.90;99.90;;;;;;5050635;28;20021;-46